Terminal Aerodrome Forecast
Issued by NWS

Home | Current Version | Previous Version | Graphics & Text | Print | Product List | Glossary On
Versions: 1 2 3 4 5 6 7 8 9 10 11 12 13 14 15 16 17 18 19 20 21 22 23
000
FTUS43 KLOT 260257 AAA
TAFDPA
TAF AMD
KDPA 260257Z 2603/2624 27005KT P6SM VCSH SCT070 BKN150
     FM260700 20005KT P6SM FEW050 BKN150
     FM261600 24009KT P6SM SCT050 SCT250=

USA.gov is the U.S. government's official web portal to all federal, state and local government web resources and services.